createdAt,value
2016-12-15T00:00:03.225Z,1028.78
2016-12-15T00:00:43.739Z,1028.73
2016-12-15T00:01:24.232Z,1028.76
2016-12-15T00:02:04.711Z,1028.74
2016-12-15T00:02:45.177Z,1028.74
2016-12-15T00:03:25.652Z,1028.73
2016-12-15T00:04:06.138Z,1028.71
2016-12-15T00:04:46.623Z,1028.74
2016-12-15T00:05:27.083Z,1028.68
2016-12-15T00:06:07.580Z,1028.72
2016-12-15T00:06:48.055Z,1028.72
2016-12-15T00:07:28.516Z,1028.69
2016-12-15T00:08:09.001Z,1028.69
2016-12-15T00:08:49.472Z,1028.74
2016-12-15T00:09:29.955Z,1028.71
2016-12-15T00:10:10.412Z,1028.72
2016-12-15T00:10:50.888Z,1028.71
2016-12-15T00:11:31.385Z,1028.74
2016-12-15T00:12:11.839Z,1028.75
2016-12-15T00:12:52.417Z,1028.78
2016-12-15T00:13:32.863Z,1028.78
2016-12-15T00:14:13.332Z,1028.77
2016-12-15T00:14:53.817Z,1028.75
2016-12-15T00:15:34.289Z,1028.73
2016-12-15T00:16:14.761Z,1028.76
2016-12-15T00:16:55.282Z,1028.73
2016-12-15T00:17:35.786Z,1028.75
2016-12-15T00:18:16.266Z,1028.71
2016-12-15T00:18:56.735Z,1028.75
2016-12-15T00:19:37.186Z,1028.73
2016-12-15T00:20:17.658Z,1028.71
2016-12-15T00:20:58.147Z,1028.74
2016-12-15T00:21:38.636Z,1028.71
2016-12-15T00:22:19.105Z,1028.68
2016-12-15T00:22:59.566Z,1028.71
2016-12-15T00:23:40.086Z,1028.63
2016-12-15T00:24:20.514Z,1028.68
2016-12-15T00:25:00.974Z,1028.66
2016-12-15T00:25:41.469Z,1028.68
2016-12-15T00:26:21.915Z,1028.69
2016-12-15T00:27:02.503Z,1028.7
2016-12-15T00:27:42.948Z,1028.72
2016-12-15T00:28:23.432Z,1028.73
2016-12-15T00:29:03.891Z,1028.78
2016-12-15T00:29:44.375Z,1028.77
2016-12-15T00:30:24.834Z,1028.75
2016-12-15T00:31:05.281Z,1028.75
2016-12-15T00:31:45.768Z,1028.75
2016-12-15T00:32:26.254Z,1028.72
2016-12-15T00:33:06.730Z,1028.74
2016-12-15T00:33:47.218Z,1028.74
2016-12-15T00:34:27.672Z,1028.75
2016-12-15T00:35:08.192Z,1028.74
2016-12-15T00:35:48.634Z,1028.75
2016-12-15T00:36:29.125Z,1028.77
2016-12-15T00:37:09.619Z,1028.75
2016-12-15T00:37:50.081Z,1028.69
2016-12-15T00:38:30.549Z,1028.7
2016-12-15T00:39:11.025Z,1028.69
2016-12-15T00:39:51.474Z,1028.71
2016-12-15T00:40:31.971Z,1028.68
2016-12-15T00:41:12.442Z,1028.69
2016-12-15T00:41:52.926Z,1028.68
2016-12-15T00:42:33.360Z,1028.69
2016-12-15T00:43:13.849Z,1028.64
2016-12-15T00:43:54.344Z,1028.66
2016-12-15T00:44:34.819Z,1028.66
2016-12-15T00:45:15.268Z,1028.68
2016-12-15T00:45:55.759Z,1028.69
2016-12-15T00:46:36.226Z,1028.7
2016-12-15T00:47:16.669Z,1028.77
2016-12-15T00:47:57.131Z,1028.76
2016-12-15T00:48:37.637Z,1028.76
2016-12-15T00:49:18.104Z,1028.78
2016-12-15T00:49:58.567Z,1028.77
2016-12-15T00:50:39.020Z,1028.81
2016-12-15T00:51:19.479Z,1028.8
2016-12-15T00:51:59.973Z,1028.78
2016-12-15T00:52:40.448Z,1028.76
2016-12-15T00:53:20.917Z,1028.74
2016-12-15T00:54:01.401Z,1028.78
2016-12-15T00:54:41.874Z,1028.82
2016-12-15T00:55:22.364Z,1028.78
2016-12-15T00:56:02.807Z,1028.82
2016-12-15T00:56:43.285Z,1028.79
2016-12-15T00:57:23.798Z,1028.8
2016-12-15T00:58:04.234Z,1028.82
2016-12-15T00:58:44.718Z,1028.78
2016-12-15T00:59:25.170Z,1028.77
2016-12-15T01:00:05.631Z,1028.8
2016-12-15T01:00:46.115Z,1028.76
2016-12-15T01:01:26.567Z,1028.77
2016-12-15T01:02:07.034Z,1028.76
2016-12-15T01:02:47.521Z,1028.74
2016-12-15T01:03:28.032Z,1028.75
2016-12-15T01:04:08.474Z,1028.77
2016-12-15T01:04:48.959Z,1028.75
2016-12-15T01:05:29.449Z,1028.73
2016-12-15T01:06:09.907Z,1028.76
2016-12-15T01:06:50.405Z,1028.76
2016-12-15T01:07:30.885Z,1028.75
2016-12-15T01:08:11.338Z,1028.74
2016-12-15T01:08:51.802Z,1028.78
2016-12-15T01:09:32.289Z,1028.78
2016-12-15T01:10:12.743Z,1028.81
2016-12-15T01:10:53.211Z,1028.82
2016-12-15T01:11:33.696Z,1028.81
2016-12-15T01:12:14.166Z,1028.84
2016-12-15T01:12:54.650Z,1028.86
2016-12-15T01:13:35.112Z,1028.87
2016-12-15T01:14:15.623Z,1028.88
2016-12-15T01:14:56.075Z,1028.86
2016-12-15T01:15:36.555Z,1028.91
2016-12-15T01:16:17.047Z,1028.87
2016-12-15T01:16:57.520Z,1028.86
2016-12-15T01:17:37.968Z,1028.88
2016-12-15T01:18:18.472Z,1028.87
2016-12-15T01:18:58.931Z,1028.89
2016-12-15T01:19:39.390Z,1028.88
2016-12-15T01:20:19.883Z,1028.9
2016-12-15T01:21:00.346Z,1028.88
2016-12-15T01:21:40.854Z,1028.84
2016-12-15T01:22:21.321Z,1028.88
2016-12-15T01:23:01.812Z,1028.83
2016-12-15T01:23:42.257Z,1028.85
2016-12-15T01:24:22.753Z,1028.85
2016-12-15T01:25:03.245Z,1028.85
2016-12-15T01:25:43.709Z,1028.88
2016-12-15T01:26:24.191Z,1028.88
2016-12-15T01:27:04.657Z,1028.87
2016-12-15T01:27:45.121Z,1028.83
2016-12-15T01:28:25.654Z,1028.86
2016-12-15T01:29:06.112Z,1028.9
2016-12-15T01:29:46.567Z,1028.86
2016-12-15T01:30:27.052Z,1028.84
2016-12-15T01:31:07.505Z,1028.84
2016-12-15T01:31:47.974Z,1028.81
2016-12-15T01:32:28.437Z,1028.82
2016-12-15T01:33:08.901Z,1028.8
2016-12-15T01:33:49.376Z,1028.81
2016-12-15T01:34:29.875Z,1028.84
2016-12-15T01:35:10.384Z,1028.85
2016-12-15T01:35:50.880Z,1028.85
2016-12-15T01:36:31.334Z,1028.86
2016-12-15T01:37:11.821Z,1028.83
2016-12-15T01:37:52.280Z,1028.85
2016-12-15T01:38:32.773Z,1028.81
2016-12-15T01:39:13.256Z,1028.77
2016-12-15T01:39:53.758Z,1028.77
2016-12-15T01:40:34.244Z,1028.78
2016-12-15T01:41:14.708Z,1028.76
2016-12-15T01:41:55.181Z,1028.76
2016-12-15T01:42:35.690Z,1028.76
2016-12-15T01:43:16.139Z,1028.76
2016-12-15T01:43:56.635Z,1028.78
2016-12-15T01:44:37.128Z,1028.76
2016-12-15T01:45:17.615Z,1028.76
2016-12-15T01:45:58.060Z,1028.8
2016-12-15T01:46:38.547Z,1028.77
2016-12-15T01:47:19.001Z,1028.82
2016-12-15T01:47:59.475Z,1028.77
2016-12-15T01:48:39.959Z,1028.78
2016-12-15T01:49:20.427Z,1028.79
2016-12-15T01:50:00.894Z,1028.77
2016-12-15T01:50:41.386Z,1028.78
2016-12-15T01:51:21.851Z,1028.75
2016-12-15T01:52:02.310Z,1028.75
2016-12-15T01:52:42.771Z,1028.76
2016-12-15T01:53:23.237Z,1028.77
2016-12-15T01:54:03.697Z,1028.75
2016-12-15T01:54:44.197Z,1028.73
2016-12-15T01:55:24.702Z,1028.75
2016-12-15T01:56:05.159Z,1028.72
2016-12-15T01:56:45.607Z,1028.72
2016-12-15T01:57:26.086Z,1028.72
2016-12-15T01:58:06.574Z,1028.7
2016-12-15T01:58:47.040Z,1028.7
2016-12-15T01:59:27.502Z,1028.68
2016-12-15T02:00:07.977Z,1028.69
2016-12-15T02:00:48.447Z,1028.73
2016-12-15T02:01:28.924Z,1028.71
2016-12-15T02:02:09.432Z,1028.73
2016-12-15T02:02:49.858Z,1028.72
2016-12-15T02:03:30.328Z,1028.74
2016-12-15T02:04:10.798Z,1028.74
2016-12-15T02:04:51.265Z,1028.7
2016-12-15T02:05:31.746Z,1028.77
2016-12-15T02:06:12.218Z,1028.75
2016-12-15T02:06:52.680Z,1028.76
2016-12-15T02:07:33.157Z,1028.73
2016-12-15T02:08:13.630Z,1028.79
2016-12-15T02:08:54.085Z,1028.74
2016-12-15T02:09:34.564Z,1028.74
2016-12-15T02:10:15.038Z,1028.74
2016-12-15T02:10:55.520Z,1028.74
2016-12-15T02:11:35.997Z,1028.72
2016-12-15T02:12:16.469Z,1028.69
2016-12-15T02:12:56.937Z,1028.71
2016-12-15T02:13:37.419Z,1028.7
2016-12-15T02:14:17.892Z,1028.71
2016-12-15T02:14:58.359Z,1028.72
2016-12-15T02:15:38.843Z,1028.7
2016-12-15T02:16:19.312Z,1028.72
2016-12-15T02:16:59.774Z,1028.67
2016-12-15T02:17:40.240Z,1028.63
2016-12-15T02:18:20.721Z,1028.7
2016-12-15T02:19:01.197Z,1028.69
2016-12-15T02:19:41.687Z,1028.66
2016-12-15T02:20:22.150Z,1028.69
2016-12-15T02:21:02.718Z,1028.72
2016-12-15T02:21:43.224Z,1028.69
2016-12-15T02:22:23.709Z,1028.72
2016-12-15T02:23:04.190Z,1028.74
2016-12-15T02:23:44.658Z,1028.74
2016-12-15T02:24:25.136Z,1028.72
2016-12-15T02:25:05.616Z,1028.76
2016-12-15T02:25:46.099Z,1028.81
2016-12-15T02:26:26.565Z,1028.78
2016-12-15T02:27:07.043Z,1028.83
2016-12-15T02:27:47.519Z,1028.8
2016-12-15T02:28:27.978Z,1028.82
2016-12-15T02:29:08.476Z,1028.86
2016-12-15T02:29:48.923Z,1028.85
2016-12-15T02:30:29.403Z,1028.85
2016-12-15T02:31:09.861Z,1028.81
2016-12-15T02:31:50.355Z,1028.79
2016-12-15T02:32:30.879Z,1028.77
2016-12-15T02:33:11.326Z,1028.81
2016-12-15T02:33:51.809Z,1028.79
2016-12-15T02:34:32.260Z,1028.82
2016-12-15T02:35:12.736Z,1028.81
2016-12-15T02:35:53.223Z,1028.81
2016-12-15T02:36:33.701Z,1028.81
2016-12-15T02:37:14.147Z,1028.75
2016-12-15T02:37:54.618Z,1028.83
2016-12-15T02:38:35.112Z,1028.77
2016-12-15T02:39:15.561Z,1028.79
2016-12-15T02:39:56.016Z,1028.78
2016-12-15T02:40:36.498Z,1028.78
2016-12-15T02:41:16.971Z,1028.79
2016-12-15T02:41:57.450Z,1028.77
2016-12-15T02:42:37.924Z,1028.8
2016-12-15T02:43:18.401Z,1028.8
2016-12-15T02:43:58.874Z,1028.81
2016-12-15T02:44:39.339Z,1028.79
2016-12-15T02:46:33.250Z,1028.79
2016-12-15T02:47:13.812Z,1028.77
2016-12-15T02:47:54.279Z,1028.81
2016-12-15T02:48:34.749Z,1028.84
2016-12-15T02:49:15.193Z,1028.82
2016-12-15T02:49:55.661Z,1028.84
2016-12-15T02:50:36.141Z,1028.84
2016-12-15T02:51:16.603Z,1028.84
2016-12-15T02:51:57.051Z,1028.87
2016-12-15T02:52:37.522Z,1028.88
2016-12-15T02:53:17.992Z,1028.83
2016-12-15T02:53:58.449Z,1028.82
2016-12-15T02:54:38.910Z,1028.86
2016-12-15T02:55:19.380Z,1028.8
2016-12-15T02:55:59.856Z,1028.83
2016-12-15T02:56:40.355Z,1028.85
2016-12-15T02:57:20.818Z,1028.83
2016-12-15T02:58:01.282Z,1028.78
2016-12-15T02:58:41.759Z,1028.82
2016-12-15T02:59:22.190Z,1028.77
2016-12-15T03:00:02.687Z,1028.75
2016-12-15T03:00:43.172Z,1028.78
2016-12-15T03:01:23.619Z,1028.77
2016-12-15T03:02:04.064Z,1028.79
2016-12-15T03:02:44.538Z,1028.74
2016-12-15T03:03:25.015Z,1028.73
2016-12-15T03:04:05.480Z,1028.81
2016-12-15T03:04:45.939Z,1028.76
2016-12-15T03:05:26.426Z,1028.82
2016-12-15T03:06:06.924Z,1028.83
2016-12-15T03:06:47.400Z,1028.82
2016-12-15T03:07:27.870Z,1028.74
2016-12-15T03:08:08.349Z,1028.75
2016-12-15T03:08:48.823Z,1028.75
2016-12-15T03:11:10.893Z,1028.73
2016-12-15T03:11:52.118Z,1028.68
2016-12-15T03:12:32.620Z,1028.71
2016-12-15T03:13:13.121Z,1028.73
2016-12-15T03:13:53.551Z,1028.76
2016-12-15T03:14:34.002Z,1028.7
2016-12-15T03:15:14.468Z,1028.71
2016-12-15T03:15:54.915Z,1028.74
2016-12-15T03:16:35.389Z,1028.76
2016-12-15T03:17:15.876Z,1028.75
2016-12-15T03:17:56.340Z,1028.72
2016-12-15T03:18:36.796Z,1028.76
2016-12-15T03:19:17.290Z,1028.81
2016-12-15T03:19:57.726Z,1028.77
2016-12-15T03:20:38.177Z,1028.8
2016-12-15T03:21:18.634Z,1028.84
2016-12-15T03:21:59.089Z,1028.84
2016-12-15T03:22:39.550Z,1028.86
2016-12-15T03:23:20.000Z,1028.85
2016-12-15T03:24:00.459Z,1028.88
2016-12-15T03:24:40.948Z,1028.87
2016-12-15T03:25:21.414Z,1028.88
2016-12-15T03:26:01.887Z,1028.83
2016-12-15T03:26:42.349Z,1028.91
2016-12-15T03:27:23.011Z,1028.85
2016-12-15T03:28:03.448Z,1028.85
2016-12-15T03:28:43.900Z,1028.84
2016-12-15T03:29:24.406Z,1028.89
2016-12-15T03:30:04.869Z,1028.92
2016-12-15T03:30:45.301Z,1028.88
2016-12-15T03:31:25.827Z,1028.85
2016-12-15T03:32:06.284Z,1028.89
2016-12-15T03:32:46.755Z,1028.89
2016-12-15T03:33:27.238Z,1028.94
2016-12-15T03:34:07.715Z,1028.92
2016-12-15T03:34:48.167Z,1028.93
2016-12-15T03:35:28.675Z,1028.93
2016-12-15T03:36:09.105Z,1028.93
2016-12-15T03:36:49.584Z,1028.9
2016-12-15T03:37:30.064Z,1028.94
2016-12-15T03:38:10.580Z,1028.88
2016-12-15T03:38:51.030Z,1028.89
2016-12-15T03:39:31.496Z,1028.9
2016-12-15T03:40:11.993Z,1028.88
2016-12-15T03:40:52.526Z,1028.9
2016-12-15T03:41:32.916Z,1028.85
2016-12-15T03:42:13.421Z,1028.86
2016-12-15T03:42:53.872Z,1028.8
2016-12-15T03:43:34.355Z,1028.83
2016-12-15T03:44:14.825Z,1028.83
2016-12-15T03:44:55.240Z,1028.84
2016-12-15T03:45:35.742Z,1028.86
2016-12-15T03:46:16.229Z,1028.88
2016-12-15T03:46:56.708Z,1028.85
2016-12-15T03:47:37.150Z,1028.82
2016-12-15T03:48:17.606Z,1028.88
2016-12-15T03:48:58.049Z,1028.86
2016-12-15T03:49:38.511Z,1028.87
2016-12-15T03:50:18.965Z,1028.88
2016-12-15T03:50:59.459Z,1028.88
2016-12-15T03:51:39.908Z,1028.88
2016-12-15T03:52:20.353Z,1028.84
2016-12-15T03:53:00.818Z,1028.87
2016-12-15T03:53:41.313Z,1028.86
2016-12-15T03:54:21.751Z,1028.87
2016-12-15T03:55:02.227Z,1028.85
2016-12-15T03:55:42.658Z,1028.84
2016-12-15T03:56:23.175Z,1028.79
2016-12-15T03:57:03.641Z,1028.8
2016-12-15T03:57:44.095Z,1028.8
2016-12-15T03:58:24.566Z,1028.77
2016-12-15T03:59:05.037Z,1028.77
2016-12-15T03:59:45.492Z,1028.78
2016-12-15T04:00:25.971Z,1028.81
2016-12-15T04:01:06.442Z,1028.77
2016-12-15T04:01:46.907Z,1028.74
2016-12-15T04:02:27.361Z,1028.72
2016-12-15T04:03:07.837Z,1028.77
2016-12-15T04:03:48.292Z,1028.79
2016-12-15T04:04:28.767Z,1028.76
2016-12-15T04:05:09.222Z,1028.82
2016-12-15T04:05:49.680Z,1028.82
2016-12-15T04:06:30.119Z,1028.82
2016-12-15T04:07:10.617Z,1028.82
2016-12-15T04:07:51.050Z,1028.82
2016-12-15T04:08:31.515Z,1028.81
2016-12-15T04:09:11.978Z,1028.81
2016-12-15T04:09:52.427Z,1028.79
2016-12-15T04:10:32.900Z,1028.82
2016-12-15T04:11:13.357Z,1028.81
2016-12-15T04:11:53.824Z,1028.83
2016-12-15T04:12:34.294Z,1028.87
2016-12-15T04:13:14.742Z,1028.88
2016-12-15T04:13:55.232Z,1028.9
2016-12-15T04:14:35.731Z,1028.93
2016-12-15T04:15:16.199Z,1028.9
2016-12-15T04:15:56.646Z,1028.9
2016-12-15T04:16:37.093Z,1028.9
2016-12-15T04:17:17.544Z,1028.86
2016-12-15T04:17:57.998Z,1028.93
2016-12-15T04:18:38.484Z,1028.88
2016-12-15T04:19:18.903Z,1028.88
2016-12-15T04:19:59.370Z,1028.89
2016-12-15T04:20:39.851Z,1028.88
2016-12-15T04:21:20.263Z,1028.88
2016-12-15T04:22:00.730Z,1028.92
2016-12-15T04:22:41.211Z,1028.89
2016-12-15T04:23:21.650Z,1028.89
2016-12-15T04:24:02.149Z,1028.93
2016-12-15T04:24:42.579Z,1028.93
2016-12-15T04:25:23.083Z,1028.89
2016-12-15T04:26:03.510Z,1028.9
2016-12-15T04:26:44.016Z,1028.92
2016-12-15T04:27:24.465Z,1028.92
2016-12-15T04:28:04.915Z,1028.93
2016-12-15T04:28:45.397Z,1028.97
2016-12-15T04:29:25.889Z,1028.94
2016-12-15T04:30:06.318Z,1028.92
2016-12-15T04:30:46.809Z,1028.92
2016-12-15T04:31:27.271Z,1028.94
2016-12-15T04:32:07.732Z,1028.92
2016-12-15T04:32:48.235Z,1028.92
2016-12-15T04:33:28.687Z,1028.96
2016-12-15T04:34:09.123Z,1028.96
2016-12-15T04:34:49.598Z,1028.95
2016-12-15T04:35:30.083Z,1028.96
2016-12-15T04:36:10.578Z,1028.96
2016-12-15T04:36:50.965Z,1028.96
2016-12-15T04:37:31.434Z,1028.95
2016-12-15T04:38:11.867Z,1028.96
2016-12-15T04:38:52.352Z,1028.95
2016-12-15T04:39:32.817Z,1028.94
2016-12-15T04:40:13.257Z,1028.95
2016-12-15T04:40:53.740Z,1028.95
2016-12-15T04:41:34.214Z,1028.97
2016-12-15T04:42:14.635Z,1028.96
2016-12-15T04:42:55.106Z,1028.97
2016-12-15T04:43:35.609Z,1028.95
2016-12-15T04:44:16.049Z,1028.95
2016-12-15T04:44:56.535Z,1028.95
2016-12-15T04:45:36.991Z,1029
2016-12-15T04:46:17.456Z,1028.99
2016-12-15T04:46:57.916Z,1029.05
2016-12-15T04:47:38.360Z,1029.03
2016-12-15T04:48:18.852Z,1029.06
2016-12-15T04:48:59.311Z,1029.04
2016-12-15T04:49:39.774Z,1029.05
2016-12-15T04:50:20.231Z,1028.98
2016-12-15T04:51:00.716Z,1029.05
2016-12-15T04:51:41.164Z,1029.02
2016-12-15T04:52:21.660Z,1029.05
2016-12-15T04:53:02.087Z,1029.04
2016-12-15T04:53:42.553Z,1029.06
2016-12-15T04:54:23.028Z,1029.04
2016-12-15T04:55:03.472Z,1029.03
2016-12-15T04:55:43.954Z,1029.05
2016-12-15T04:56:24.421Z,1029.04
2016-12-15T04:57:04.875Z,1029.07
2016-12-15T04:57:45.351Z,1029.06
2016-12-15T04:58:25.865Z,1029.06
2016-12-15T04:59:06.323Z,1029.06
2016-12-15T04:59:46.794Z,1029.04
2016-12-15T05:00:27.251Z,1029.07
2016-12-15T05:01:07.702Z,1029.1
2016-12-15T05:01:48.171Z,1029.08
2016-12-15T05:02:28.615Z,1029.1
2016-12-15T05:03:09.086Z,1029.1
2016-12-15T05:03:49.535Z,1029.11
2016-12-15T05:04:29.993Z,1029.06
2016-12-15T05:05:10.444Z,1029.09
2016-12-15T05:05:50.906Z,1029.06
2016-12-15T05:06:31.395Z,1029.11
2016-12-15T05:07:11.837Z,1029.14
2016-12-15T05:07:52.291Z,1029.1
2016-12-15T05:08:32.767Z,1029.09
2016-12-15T05:09:13.220Z,1029.11
2016-12-15T05:09:53.697Z,1029.15
2016-12-15T05:10:34.154Z,1029.06
2016-12-15T05:11:14.585Z,1029.1
2016-12-15T05:11:55.058Z,1029.13
2016-12-15T05:12:35.537Z,1029.08
2016-12-15T05:13:16.052Z,1029.07
2016-12-15T05:13:56.497Z,1029.12
2016-12-15T05:14:37.007Z,1029.1
2016-12-15T05:15:17.439Z,1029.13
2016-12-15T05:15:57.921Z,1029.14
2016-12-15T05:16:38.392Z,1029.14
2016-12-15T05:17:18.890Z,1029.13
2016-12-15T05:17:59.365Z,1029.15
2016-12-15T05:18:39.862Z,1029.14
2016-12-15T05:19:20.621Z,1029.19
2016-12-15T05:20:01.132Z,1029.19
2016-12-15T05:20:41.870Z,1029.18
2016-12-15T05:21:22.411Z,1029.16
2016-12-15T05:22:02.913Z,1029.16
2016-12-15T05:22:43.383Z,1029.19
2016-12-15T05:23:23.901Z,1029.2
2016-12-15T05:24:04.467Z,1029.21
2016-12-15T05:24:44.946Z,1029.2
2016-12-15T05:25:25.425Z,1029.22
2016-12-15T05:26:05.914Z,1029.18
2016-12-15T05:26:46.400Z,1029.19
2016-12-15T05:27:26.911Z,1029.23
2016-12-15T05:28:07.429Z,1029.22
2016-12-15T05:28:47.915Z,1029.17
2016-12-15T05:29:28.413Z,1029.2
2016-12-15T05:30:08.895Z,1029.2
2016-12-15T05:30:49.421Z,1029.16
2016-12-15T05:31:29.913Z,1029.21
2016-12-15T05:32:10.402Z,1029.21
2016-12-15T05:32:50.907Z,1029.16
2016-12-15T05:33:31.433Z,1029.17
2016-12-15T05:34:11.923Z,1029.21
2016-12-15T05:34:52.438Z,1029.23
2016-12-15T05:35:32.903Z,1029.25
2016-12-15T05:36:13.385Z,1029.17
2016-12-15T05:36:53.867Z,1029.16
2016-12-15T05:37:34.367Z,1029.18
2016-12-15T05:38:14.905Z,1029.14
2016-12-15T05:38:55.391Z,1029.16
2016-12-15T05:39:35.876Z,1029.12
2016-12-15T05:40:16.371Z,1029.14
2016-12-15T05:40:56.851Z,1029.15
2016-12-15T05:41:37.344Z,1029.14
2016-12-15T05:42:17.842Z,1029.14
2016-12-15T05:42:58.344Z,1029.11
2016-12-15T05:43:38.826Z,1029.14
2016-12-15T05:44:19.304Z,1029.06
2016-12-15T05:44:59.816Z,1029.08
2016-12-15T05:45:40.333Z,1029.1
2016-12-15T05:46:20.821Z,1029.15
2016-12-15T05:47:01.343Z,1029.14
2016-12-15T05:47:41.818Z,1029.12
2016-12-15T05:48:22.321Z,1029.12
2016-12-15T05:49:02.859Z,1029.12
2016-12-15T05:49:43.342Z,1029.13
2016-12-15T05:50:23.796Z,1029.12
2016-12-15T05:51:04.277Z,1029.15
2016-12-15T05:51:44.766Z,1029.15
2016-12-15T05:52:25.248Z,1029.14
2016-12-15T05:53:05.719Z,1029.16
2016-12-15T05:53:46.230Z,1029.17
2016-12-15T05:54:26.707Z,1029.18
2016-12-15T05:55:07.178Z,1029.15
2016-12-15T05:55:47.684Z,1029.13
2016-12-15T05:56:28.168Z,1029.12
2016-12-15T05:57:08.650Z,1029.11
2016-12-15T05:57:49.152Z,1029.1
2016-12-15T05:58:29.652Z,1029.15
2016-12-15T05:59:10.127Z,1029.15
2016-12-15T05:59:50.645Z,1029.16
2016-12-15T06:00:31.095Z,1029.14
2016-12-15T06:01:11.585Z,1029.14
2016-12-15T06:01:52.113Z,1029.19
2016-12-15T06:02:32.585Z,1029.18
2016-12-15T06:03:13.080Z,1029.2
2016-12-15T06:03:53.571Z,1029.22
2016-12-15T06:04:34.044Z,1029.21
2016-12-15T06:05:14.507Z,1029.23
2016-12-15T06:05:54.979Z,1029.23
2016-12-15T06:06:35.476Z,1029.28
2016-12-15T06:07:15.956Z,1029.31
2016-12-15T06:07:56.441Z,1029.26
2016-12-15T06:08:36.930Z,1029.24
2016-12-15T06:09:17.432Z,1029.27
2016-12-15T06:09:57.918Z,1029.3
2016-12-15T06:10:38.402Z,1029.3
2016-12-15T06:11:18.901Z,1029.31
2016-12-15T06:11:59.376Z,1029.38
2016-12-15T06:12:39.850Z,1029.37
2016-12-15T06:13:20.345Z,1029.35
2016-12-15T06:14:00.815Z,1029.38
2016-12-15T06:14:41.306Z,1029.32
2016-12-15T06:15:21.799Z,1029.32
2016-12-15T06:16:02.284Z,1029.35
2016-12-15T06:16:42.791Z,1029.35
2016-12-15T06:17:23.289Z,1029.36
2016-12-15T06:18:03.762Z,1029.4
2016-12-15T06:18:44.257Z,1029.41
2016-12-15T06:19:24.742Z,1029.38
2016-12-15T06:20:05.240Z,1029.38
2016-12-15T06:20:45.725Z,1029.33
2016-12-15T06:21:26.206Z,1029.4
2016-12-15T06:22:06.697Z,1029.4
2016-12-15T06:22:47.254Z,1029.4
2016-12-15T06:23:27.770Z,1029.43
2016-12-15T06:24:08.273Z,1029.41
2016-12-15T06:24:49.092Z,1029.38
2016-12-15T06:25:29.581Z,1029.43
2016-12-15T06:26:10.072Z,1029.47
2016-12-15T06:26:50.565Z,1029.48
2016-12-15T06:27:31.054Z,1029.48
2016-12-15T06:28:11.615Z,1029.5
2016-12-15T06:28:52.108Z,1029.49
2016-12-15T06:29:32.611Z,1029.47
2016-12-15T06:30:13.089Z,1029.47
2016-12-15T06:30:53.583Z,1029.45
2016-12-15T06:31:34.083Z,1029.53
2016-12-15T06:32:14.566Z,1029.54
2016-12-15T06:32:55.064Z,1029.54
2016-12-15T06:33:35.561Z,1029.55
2016-12-15T06:34:16.072Z,1029.52
2016-12-15T06:34:56.543Z,1029.53
2016-12-15T06:35:37.034Z,1029.55
2016-12-15T06:36:17.541Z,1029.55
2016-12-15T06:36:58.069Z,1029.56
2016-12-15T06:37:38.527Z,1029.53
2016-12-15T06:39:57.914Z,1029.59
2016-12-15T06:40:38.372Z,1029.56
2016-12-15T06:41:18.874Z,1029.61
2016-12-15T06:41:59.348Z,1029.56
2016-12-15T06:42:39.815Z,1029.57
2016-12-15T06:43:20.331Z,1029.56
2016-12-15T06:44:00.833Z,1029.58
2016-12-15T06:44:41.325Z,1029.59
2016-12-15T06:45:21.793Z,1029.64
2016-12-15T06:46:02.312Z,1029.6
2016-12-15T06:46:42.801Z,1029.58
2016-12-15T06:47:23.303Z,1029.59
2016-12-15T06:48:03.809Z,1029.6
2016-12-15T06:48:44.323Z,1029.57
2016-12-15T06:49:24.780Z,1029.58
2016-12-15T06:50:05.285Z,1029.57
2016-12-15T06:50:45.831Z,1029.59
2016-12-15T06:51:26.356Z,1029.58
2016-12-15T06:52:06.820Z,1029.59
2016-12-15T06:52:47.334Z,1029.64
2016-12-15T06:53:27.773Z,1029.61
2016-12-15T06:54:08.283Z,1029.63
2016-12-15T06:54:48.743Z,1029.62
2016-12-15T06:55:29.233Z,1029.63
2016-12-15T06:56:10.002Z,1029.62
2016-12-15T06:56:50.723Z,1029.65
2016-12-15T06:57:31.450Z,1029.65
2016-12-15T06:58:11.938Z,1029.66
2016-12-15T06:58:52.429Z,1029.61
2016-12-15T06:59:32.979Z,1029.67
2016-12-15T07:00:13.481Z,1029.64
2016-12-15T07:00:53.956Z,1029.61
2016-12-15T07:01:34.466Z,1029.64
2016-12-15T07:02:15.342Z,1029.65
2016-12-15T07:02:55.879Z,1029.59
2016-12-15T07:03:36.525Z,1029.59
2016-12-15T07:04:17.019Z,1029.56
2016-12-15T07:04:57.496Z,1029.62
2016-12-15T07:05:38.202Z,1029.63
2016-12-15T07:06:18.682Z,1029.54
2016-12-15T07:06:59.180Z,1029.65
2016-12-15T07:07:39.671Z,1029.61
2016-12-15T07:08:20.183Z,1029.59
2016-12-15T07:09:00.670Z,1029.6
2016-12-15T07:09:41.187Z,1029.61
2016-12-15T07:10:21.716Z,1029.62
2016-12-15T07:11:02.195Z,1029.61
2016-12-15T07:11:42.691Z,1029.61
2016-12-15T07:12:23.210Z,1029.62
2016-12-15T07:13:03.830Z,1029.63
2016-12-15T07:13:44.427Z,1029.65
2016-12-15T07:14:24.823Z,1029.64
2016-12-15T07:15:05.303Z,1029.62
2016-12-15T07:15:45.779Z,1029.61
2016-12-15T07:16:26.286Z,1029.64
2016-12-15T07:17:06.768Z,1029.63
2016-12-15T07:17:47.254Z,1029.61
2016-12-15T07:18:27.713Z,1029.59
2016-12-15T07:19:08.344Z,1029.59
2016-12-15T07:19:48.829Z,1029.59
2016-12-15T07:20:29.309Z,1029.55
2016-12-15T07:21:09.830Z,1029.56
2016-12-15T07:21:50.305Z,1029.57
2016-12-15T07:22:30.784Z,1029.57
2016-12-15T07:23:11.303Z,1029.56
2016-12-15T07:23:51.764Z,1029.56
2016-12-15T07:24:32.228Z,1029.59
2016-12-15T07:25:12.723Z,1029.63
2016-12-15T07:25:53.187Z,1029.57
2016-12-15T07:26:33.672Z,1029.61
2016-12-15T07:27:14.184Z,1029.61
2016-12-15T07:27:54.718Z,1029.6
2016-12-15T07:28:35.123Z,1029.62
2016-12-15T07:29:15.671Z,1029.56
2016-12-15T07:29:56.121Z,1029.61
2016-12-15T07:30:36.597Z,1029.58
2016-12-15T07:31:17.076Z,1029.6
2016-12-15T07:31:57.558Z,1029.6
2016-12-15T07:32:38.091Z,1029.62
2016-12-15T07:33:18.573Z,1029.63
2016-12-15T07:33:59.053Z,1029.67
2016-12-15T07:34:39.536Z,1029.62
2016-12-15T07:35:20.029Z,1029.69
2016-12-15T07:36:00.535Z,1029.66
2016-12-15T07:36:41.016Z,1029.64
2016-12-15T07:37:21.506Z,1029.68
2016-12-15T07:38:01.992Z,1029.7
2016-12-15T07:38:42.482Z,1029.66
2016-12-15T07:39:22.974Z,1029.65
2016-12-15T07:40:03.474Z,1029.66
2016-12-15T07:40:43.960Z,1029.63
2016-12-15T07:41:24.443Z,1029.64
2016-12-15T07:42:04.968Z,1029.63
2016-12-15T07:42:45.442Z,1029.63
2016-12-15T07:43:25.933Z,1029.63
2016-12-15T07:44:06.427Z,1029.62
2016-12-15T07:44:46.920Z,1029.65
2016-12-15T07:45:27.410Z,1029.64
2016-12-15T07:46:07.892Z,1029.67
2016-12-15T07:46:48.383Z,1029.6
2016-12-15T07:47:28.885Z,1029.59
2016-12-15T07:48:09.400Z,1029.65
2016-12-15T07:48:49.892Z,1029.61
2016-12-15T07:49:30.365Z,1029.61
2016-12-15T07:50:10.923Z,1029.61
2016-12-15T07:50:51.412Z,1029.66
2016-12-15T07:51:31.903Z,1029.67
2016-12-15T07:52:12.411Z,1029.64
2016-12-15T07:52:53.006Z,1029.62
2016-12-15T07:53:33.492Z,1029.69
2016-12-15T07:54:13.994Z,1029.63
2016-12-15T07:54:54.483Z,1029.68
2016-12-15T07:55:34.987Z,1029.66
2016-12-15T07:56:15.461Z,1029.68
2016-12-15T07:56:55.952Z,1029.74
2016-12-15T07:57:36.450Z,1029.72
2016-12-15T07:58:16.953Z,1029.67
2016-12-15T07:58:57.429Z,1029.72
2016-12-15T07:59:37.934Z,1029.77
2016-12-15T08:00:18.421Z,1029.73
2016-12-15T08:00:58.919Z,1029.74
2016-12-15T08:01:39.415Z,1029.68
2016-12-15T08:02:19.894Z,1029.76
2016-12-15T08:03:00.378Z,1029.7
2016-12-15T08:03:40.886Z,1029.73
2016-12-15T08:04:21.368Z,1029.73
2016-12-15T08:05:01.844Z,1029.73
2016-12-15T08:05:42.340Z,1029.76
2016-12-15T08:06:22.794Z,1029.7
2016-12-15T08:07:03.297Z,1029.8
2016-12-15T08:07:43.752Z,1029.84
2016-12-15T08:08:24.282Z,1029.78
2016-12-15T08:09:04.703Z,1029.81
2016-12-15T08:09:45.212Z,1029.81
2016-12-15T08:10:25.725Z,1029.79
2016-12-15T08:11:06.191Z,1029.78
2016-12-15T08:11:46.676Z,1029.74
2016-12-15T08:12:27.203Z,1029.76
2016-12-15T08:13:07.712Z,1029.78
2016-12-15T08:13:48.216Z,1029.8
2016-12-15T08:14:28.711Z,1029.8
2016-12-15T08:15:09.226Z,1029.75